Happy Valley, Texas
Current Conditions -  °F | °C
As of 9:58 PM on Wednesday 22 Oct 2014 (Local Time) from KDYS Reporting Station
Scattered Clouds Scattered Clouds  
Wind Chill: 62°   Ceiling: Unl
Heat Index: 62°   Visibility: 10mi
Dew Point: 58°   Wind: 1mph
Humidity: 85%   Direction: 140°SE
Pressure: 30.12"   Gusts: NA
Location:  32.0181°N, 100.153°W
Report Text: KDYS 230258Z AUTO 14001KT 10SM SCT065 17/14 A3012 RMK AO2 SLP173 T01680143 52006
Loading
Personal Weather Stations






























Interactive Weather Map
Tropical Storm Tracking
New forecast layout! Learn more

10-Day Weather Forecast

Advertisements
Track Severe Weather on mobile